sensor_id;sensor_type;location;lat;lon;timestamp;temperature;humidity
22224;DHT22;11281;52.194;21.006;2022-08-04T00:02:10;17.00;99.90
22224;DHT22;11281;52.194;21.006;2022-08-04T00:10:38;17.00;99.90
22224;DHT22;11281;52.194;21.006;2022-08-04T00:14:49;16.90;99.90
22224;DHT22;11281;52.194;21.006;2022-08-04T00:19:00;16.80;99.90
22224;DHT22;11281;52.194;21.006;2022-08-04T00:23:05;16.80;99.90
22224;DHT22;11281;52.194;21.006;2022-08-04T00:27:08;16.80;99.90
22224;DHT22;11281;52.194;21.006;2022-08-04T00:31:11;16.80;99.90
22224;DHT22;11281;52.194;21.006;2022-08-04T00:35:16;16.90;99.90
22224;DHT22;11281;52.194;21.006;2022-08-04T00:39:19;16.90;99.90
22224;DHT22;11281;52.194;21.006;2022-08-04T00:43:31;16.90;99.90
22224;DHT22;11281;52.194;21.006;2022-08-04T00:52:19;16.70;99.90
22224;DHT22;11281;52.194;21.006;2022-08-04T01:01:50;16.60;99.90
22224;DHT22;11281;52.194;21.006;2022-08-04T01:10:37;16.50;99.90
22224;DHT22;11281;52.194;21.006;2022-08-04T01:19:07;16.30;99.90
22224;DHT22;11281;52.194;21.006;2022-08-04T01:33:02;16.30;99.90
22224;DHT22;11281;52.194;21.006;2022-08-04T01:41:45;16.20;99.90
22224;DHT22;11281;52.194;21.006;2022-08-04T01:45:50;16.00;99.90
22224;DHT22;11281;52.194;21.006;2022-08-04T01:50:11;15.90;99.90
22224;DHT22;11281;52.194;21.006;2022-08-04T01:54:15;15.80;99.90
22224;DHT22;11281;52.194;21.006;2022-08-04T01:58:18;15.90;99.90
22224;DHT22;11281;52.194;21.006;2022-08-04T02:02:21;15.80;99.90
22224;DHT22;11281;52.194;21.006;2022-08-04T02:06:34;15.80;99.90
22224;DHT22;11281;52.194;21.006;2022-08-04T02:15:27;15.70;99.90
22224;DHT22;11281;52.194;21.006;2022-08-04T02:19:35;15.80;99.90
22224;DHT22;11281;52.194;21.006;2022-08-04T02:23:53;15.70;99.90
22224;DHT22;11281;52.194;21.006;2022-08-04T02:32:28;15.60;99.90
22224;DHT22;11281;52.194;21.006;2022-08-04T02:36:38;15.60;99.90
22224;DHT22;11281;52.194;21.006;2022-08-04T02:40:42;15.50;99.90
22224;DHT22;11281;52.194;21.006;2022-08-04T02:44:49;15.60;99.90
22224;DHT22;11281;52.194;21.006;2022-08-04T02:48:52;15.60;99.90
22224;DHT22;11281;52.194;21.006;2022-08-04T02:52:57;15.60;99.90
22224;DHT22;11281;52.194;21.006;2022-08-04T02:57:03;15.70;99.90
22224;DHT22;11281;52.194;21.006;2022-08-04T03:01:12;15.60;99.90
22224;DHT22;11281;52.194;21.006;2022-08-04T03:05:18;15.60;99.90
22224;DHT22;11281;52.194;21.006;2022-08-04T03:09:55;15.50;99.90
22224;DHT22;11281;52.194;21.006;2022-08-04T03:28:33;15.50;99.90
22224;DHT22;11281;52.194;21.006;2022-08-04T03:33:56;15.50;99.90
22224;DHT22;11281;52.194;21.006;2022-08-04T04:00:20;15.70;99.90
22224;DHT22;11281;52.194;21.006;2022-08-04T04:22:53;16.20;99.90
22224;DHT22;11281;52.194;21.006;2022-08-04T04:37:26;16.30;99.90
22224;DHT22;11281;52.194;21.006;2022-08-04T04:46:15;16.60;99.90
22224;DHT22;11281;52.194;21.006;2022-08-04T04:50:30;16.70;99.90
22224;DHT22;11281;52.194;21.006;2022-08-04T04:54:44;16.90;99.90
22224;DHT22;11281;52.194;21.006;2022-08-04T04:58:55;17.00;99.90
22224;DHT22;11281;52.194;21.006;2022-08-04T05:12:24;17.60;99.90
22224;DHT22;11281;52.194;21.006;2022-08-04T05:20:50;17.70;99.90
22224;DHT22;11281;52.194;21.006;2022-08-04T05:25:11;17.80;99.90
22224;DHT22;11281;52.194;21.006;2022-08-04T05:29:33;17.90;99.90
22224;DHT22;11281;52.194;21.006;2022-08-04T05:33:46;18.10;99.90
22224;DHT22;11281;52.194;21.006;2022-08-04T05:37:51;18.40;99.90
22224;DHT22;11281;52.194;21.006;2022-08-04T05:41:55;18.60;99.90
22224;DHT22;11281;52.194;21.006;2022-08-04T05:45:58;18.60;99.90
22224;DHT22;11281;52.194;21.006;2022-08-04T05:50:02;18.80;99.90
22224;DHT22;11281;52.194;21.006;2022-08-04T05:54:07;19.50;99.90
22224;DHT22;11281;52.194;21.006;2022-08-04T05:58:11;21.80;99.90
22224;DHT22;11281;52.194;21.006;2022-08-04T06:02:16;25.30;99.90
22224;DHT22;11281;52.194;21.006;2022-08-04T06:06:20;27.00;99.90
22224;DHT22;11281;52.194;21.006;2022-08-04T06:10:24;26.60;99.90
22224;DHT22;11281;52.194;21.006;2022-08-04T06:14:29;26.90;99.90
22224;DHT22;11281;52.194;21.006;2022-08-04T06:18:35;28.60;97.90
22224;DHT22;11281;52.194;21.006;2022-08-04T06:22:40;28.90;91.40
22224;DHT22;11281;52.194;21.006;2022-08-04T06:26:43;28.60;96.40
22224;DHT22;11281;52.194;21.006;2022-08-04T06:30:47;28.00;95.70
22224;DHT22;11281;52.194;21.006;2022-08-04T06:35:03;28.50;92.40
22224;DHT22;11281;52.194;21.006;2022-08-04T06:39:07;25.10;99.90
22224;DHT22;11281;52.194;21.006;2022-08-04T06:43:10;23.90;99.90
22224;DHT22;11281;52.194;21.006;2022-08-04T06:47:12;24.10;99.90
22224;DHT22;11281;52.194;21.006;2022-08-04T06:51:15;24.50;99.90
22224;DHT22;11281;52.194;21.006;2022-08-04T06:55:16;24.50;99.90
22224;DHT22;11281;52.194;21.006;2022-08-04T06:59:18;24.50;99.90
22224;DHT22;11281;52.194;21.006;2022-08-04T07:03:22;24.80;99.90
22224;DHT22;11281;52.194;21.006;2022-08-04T07:07:24;24.50;99.90
22224;DHT22;11281;52.194;21.006;2022-08-04T07:11:26;24.60;99.90
22224;DHT22;11281;52.194;21.006;2022-08-04T07:15:30;24.90;99.90
22224;DHT22;11281;52.194;21.006;2022-08-04T07:19:36;24.50;99.90
22224;DHT22;11281;52.194;21.006;2022-08-04T07:23:38;24.60;99.90
22224;DHT22;11281;52.194;21.006;2022-08-04T07:27:41;24.80;99.90
22224;DHT22;11281;52.194;21.006;2022-08-04T07:31:43;24.50;99.90
22224;DHT22;11281;52.194;21.006;2022-08-04T07:35:48;24.70;99.90
22224;DHT22;11281;52.194;21.006;2022-08-04T07:39:52;24.70;99.90
22224;DHT22;11281;52.194;21.006;2022-08-04T07:43:53;24.60;99.90
22224;DHT22;11281;52.194;21.006;2022-08-04T07:47:56;24.80;99.90
22224;DHT22;11281;52.194;21.006;2022-08-04T07:51:59;25.00;99.90
22224;DHT22;11281;52.194;21.006;2022-08-04T07:56:01;24.70;99.90
22224;DHT22;11281;52.194;21.006;2022-08-04T08:00:04;24.90;99.90
22224;DHT22;11281;52.194;21.006;2022-08-04T08:04:07;25.20;99.90
22224;DHT22;11281;52.194;21.006;2022-08-04T08:08:10;25.10;99.90
22224;DHT22;11281;52.194;21.006;2022-08-04T08:12:12;24.90;99.90
22224;DHT22;11281;52.194;21.006;2022-08-04T08:16:14;25.20;99.90
22224;DHT22;11281;52.194;21.006;2022-08-04T08:20:16;25.10;99.90
22224;DHT22;11281;52.194;21.006;2022-08-04T08:24:18;25.40;99.90
22224;DHT22;11281;52.194;21.006;2022-08-04T08:28:20;25.50;99.90
22224;DHT22;11281;52.194;21.006;2022-08-04T08:32:22;25.40;99.90
22224;DHT22;11281;52.194;21.006;2022-08-04T08:36:40;25.50;99.90
22224;DHT22;11281;52.194;21.006;2022-08-04T08:40:52;25.50;99.90
22224;DHT22;11281;52.194;21.006;2022-08-04T08:49:44;25.80;99.90
22224;DHT22;11281;52.194;21.006;2022-08-04T08:58:50;25.90;99.90
22224;DHT22;11281;52.194;21.006;2022-08-04T09:11:56;26.10;99.90
22224;DHT22;11281;52.194;21.006;2022-08-04T09:16:21;25.70;99.90
22224;DHT22;11281;52.194;21.006;2022-08-04T09:20:30;26.30;99.90
22224;DHT22;11281;52.194;21.006;2022-08-04T09:29:19;26.50;99.90
22224;DHT22;11281;52.194;21.006;2022-08-04T09:51:23;26.70;99.90
22224;DHT22;11281;52.194;21.006;2022-08-04T10:04:08;26.20;99.90
22224;DHT22;11281;52.194;21.006;2022-08-04T10:08:37;26.50;99.90
22224;DHT22;11281;52.194;21.006;2022-08-04T10:13:20;25.70;99.90
22224;DHT22;11281;52.194;21.006;2022-08-04T10:26:30;26.90;99.90
22224;DHT22;11281;52.194;21.006;2022-08-04T10:30:39;26.30;99.90
22224;DHT22;11281;52.194;21.006;2022-08-04T10:39:14;27.00;99.90
22224;DHT22;11281;52.194;21.006;2022-08-04T10:47:43;27.40;96.90
22224;DHT22;11281;52.194;21.006;2022-08-04T10:52:13;26.90;99.00
22224;DHT22;11281;52.194;21.006;2022-08-04T10:56:27;27.40;99.90
22224;DHT22;11281;52.194;21.006;2022-08-04T11:00:35;26.60;99.90
22224;DHT22;11281;52.194;21.006;2022-08-04T11:05:10;26.60;99.90
22224;DHT22;11281;52.194;21.006;2022-08-04T11:09:13;27.10;99.60
22224;DHT22;11281;52.194;21.006;2022-08-04T11:13:17;27.40;94.90
22224;DHT22;11281;52.194;21.006;2022-08-04T11:17:23;27.10;99.60
22224;DHT22;11281;52.194;21.006;2022-08-04T11:21:36;27.20;99.90
22224;DHT22;11281;52.194;21.006;2022-08-04T11:26:20;26.80;96.10
22224;DHT22;11281;52.194;21.006;2022-08-04T11:30:37;26.80;99.60
22224;DHT22;11281;52.194;21.006;2022-08-04T11:34:56;27.20;94.70
22224;DHT22;11281;52.194;21.006;2022-08-04T11:43:42;27.40;98.40
22224;DHT22;11281;52.194;21.006;2022-08-04T11:48:15;27.70;91.50
22224;DHT22;11281;52.194;21.006;2022-08-04T11:52:20;27.60;93.70
22224;DHT22;11281;52.194;21.006;2022-08-04T11:56:22;27.80;92.70
22224;DHT22;11281;52.194;21.006;2022-08-04T12:00:28;27.80;91.40
22224;DHT22;11281;52.194;21.006;2022-08-04T12:04:46;28.00;89.00
22224;DHT22;11281;52.194;21.006;2022-08-04T12:18:26;27.50;91.00
22224;DHT22;11281;52.194;21.006;2022-08-04T12:22:36;27.40;91.20
22224;DHT22;11281;52.194;21.006;2022-08-04T12:26:43;27.30;91.00
22224;DHT22;11281;52.194;21.006;2022-08-04T12:30:52;27.20;90.20
22224;DHT22;11281;52.194;21.006;2022-08-04T12:39:18;27.70;89.00
22224;DHT22;11281;52.194;21.006;2022-08-04T12:43:38;27.80;87.90
22224;DHT22;11281;52.194;21.006;2022-08-04T12:47:43;28.00;88.90
22224;DHT22;11281;52.194;21.006;2022-08-04T12:51:46;27.70;92.90
22224;DHT22;11281;52.194;21.006;2022-08-04T12:55:49;27.60;93.70
22224;DHT22;11281;52.194;21.006;2022-08-04T12:59:52;27.40;94.40
22224;DHT22;11281;52.194;21.006;2022-08-04T13:04:02;27.70;93.00
22224;DHT22;11281;52.194;21.006;2022-08-04T13:08:08;27.60;90.80
22224;DHT22;11281;52.194;21.006;2022-08-04T13:12:20;27.60;89.00
22224;DHT22;11281;52.194;21.006;2022-08-04T13:16:30;27.70;91.10
22224;DHT22;11281;52.194;21.006;2022-08-04T13:20:35;27.50;84.20
22224;DHT22;11281;52.194;21.006;2022-08-04T13:24:39;27.50;91.00
22224;DHT22;11281;52.194;21.006;2022-08-04T13:28:51;27.60;91.30
22224;DHT22;11281;52.194;21.006;2022-08-04T13:33:00;27.60;90.70
22224;DHT22;11281;52.194;21.006;2022-08-04T13:37:03;27.50;88.50
22224;DHT22;11281;52.194;21.006;2022-08-04T13:41:08;27.40;90.70
22224;DHT22;11281;52.194;21.006;2022-08-04T13:45:11;27.50;84.70
22224;DHT22;11281;52.194;21.006;2022-08-04T13:49:15;27.40;89.00
22224;DHT22;11281;52.194;21.006;2022-08-04T13:53:21;27.40;88.10
22224;DHT22;11281;52.194;21.006;2022-08-04T13:57:29;27.40;89.50
22224;DHT22;11281;52.194;21.006;2022-08-04T14:01:33;27.40;91.10
22224;DHT22;11281;52.194;21.006;2022-08-04T14:05:36;27.30;86.70
22224;DHT22;11281;52.194;21.006;2022-08-04T14:09:38;27.20;87.60
22224;DHT22;11281;52.194;21.006;2022-08-04T14:13:40;27.20;86.00
22224;DHT22;11281;52.194;21.006;2022-08-04T14:17:42;27.40;88.10
22224;DHT22;11281;52.194;21.006;2022-08-04T14:21:43;27.30;85.00
22224;DHT22;11281;52.194;21.006;2022-08-04T14:25:45;27.10;89.20
22224;DHT22;11281;52.194;21.006;2022-08-04T14:29:47;27.30;85.10
22224;DHT22;11281;52.194;21.006;2022-08-04T14:33:50;27.40;83.90
22224;DHT22;11281;52.194;21.006;2022-08-04T14:37:57;27.50;80.80
22224;DHT22;11281;52.194;21.006;2022-08-04T14:42:00;27.40;80.40
22224;DHT22;11281;52.194;21.006;2022-08-04T14:46:05;27.30;80.70
22224;DHT22;11281;52.194;21.006;2022-08-04T14:50:08;27.20;81.00
22224;DHT22;11281;52.194;21.006;2022-08-04T14:54:12;27.30;86.80
22224;DHT22;11281;52.194;21.006;2022-08-04T14:58:20;27.10;86.20
22224;DHT22;11281;52.194;21.006;2022-08-04T15:02:26;27.10;89.50
22224;DHT22;11281;52.194;21.006;2022-08-04T15:06:30;27.20;86.50
22224;DHT22;11281;52.194;21.006;2022-08-04T15:10:32;27.30;87.90
22224;DHT22;11281;52.194;21.006;2022-08-04T15:14:35;27.00;89.30
22224;DHT22;11281;52.194;21.006;2022-08-04T15:18:37;27.00;91.60
22224;DHT22;11281;52.194;21.006;2022-08-04T15:22:40;27.10;89.80
22224;DHT22;11281;52.194;21.006;2022-08-04T15:26:46;26.90;91.60
22224;DHT22;11281;52.194;21.006;2022-08-04T15:30:50;26.90;89.20
22224;DHT22;11281;52.194;21.006;2022-08-04T15:35:02;26.80;90.40
22224;DHT22;11281;52.194;21.006;2022-08-04T15:39:43;27.20;87.60
22224;DHT22;11281;52.194;21.006;2022-08-04T15:52:10;26.40;92.50
22224;DHT22;11281;52.194;21.006;2022-08-04T16:09:23;25.90;96.20
22224;DHT22;11281;52.194;21.006;2022-08-04T16:13:26;25.90;96.80
22224;DHT22;11281;52.194;21.006;2022-08-04T16:17:28;25.60;98.30
22224;DHT22;11281;52.194;21.006;2022-08-04T16:21:32;25.60;99.90
22224;DHT22;11281;52.194;21.006;2022-08-04T16:25:43;25.60;99.90
22224;DHT22;11281;52.194;21.006;2022-08-04T16:29:46;25.40;99.90
22224;DHT22;11281;52.194;21.006;2022-08-04T16:33:48;25.30;99.90
22224;DHT22;11281;52.194;21.006;2022-08-04T16:37:52;25.30;99.90
22224;DHT22;11281;52.194;21.006;2022-08-04T16:42:30;25.10;99.90
22224;DHT22;11281;52.194;21.006;2022-08-04T16:46:40;25.10;99.90
22224;DHT22;11281;52.194;21.006;2022-08-04T16:54:58;24.70;99.90
22224;DHT22;11281;52.194;21.006;2022-08-04T16:59:11;24.50;99.90
22224;DHT22;11281;52.194;21.006;2022-08-04T17:03:13;24.20;99.90
22224;DHT22;11281;52.194;21.006;2022-08-04T17:07:14;24.00;99.90
22224;DHT22;11281;52.194;21.006;2022-08-04T17:11:30;23.80;99.90
22224;DHT22;11281;52.194;21.006;2022-08-04T17:15:33;23.70;99.90
22224;DHT22;11281;52.194;21.006;2022-08-04T17:19:34;23.50;99.90
22224;DHT22;11281;52.194;21.006;2022-08-04T17:23:39;23.30;99.90
22224;DHT22;11281;52.194;21.006;2022-08-04T17:28:02;23.10;99.90
22224;DHT22;11281;52.194;21.006;2022-08-04T17:32:05;22.80;99.90
22224;DHT22;11281;52.194;21.006;2022-08-04T17:36:07;22.60;99.90
22224;DHT22;11281;52.194;21.006;2022-08-04T17:40:11;22.30;99.90
22224;DHT22;11281;52.194;21.006;2022-08-04T17:44:15;22.10;99.90
22224;DHT22;11281;52.194;21.006;2022-08-04T17:48:19;21.80;99.90
22224;DHT22;11281;52.194;21.006;2022-08-04T17:52:23;21.60;99.90
22224;DHT22;11281;52.194;21.006;2022-08-04T17:56:34;21.30;99.90
22224;DHT22;11281;52.194;21.006;2022-08-04T18:00:39;21.10;99.90
22224;DHT22;11281;52.194;21.006;2022-08-04T18:08:53;20.60;99.90
22224;DHT22;11281;52.194;21.006;2022-08-04T18:13:05;20.50;99.90
22224;DHT22;11281;52.194;21.006;2022-08-04T18:17:09;20.30;99.90
22224;DHT22;11281;52.194;21.006;2022-08-04T18:21:11;20.10;99.90
22224;DHT22;11281;52.194;21.006;2022-08-04T18:25:15;20.00;99.90
22224;DHT22;11281;52.194;21.006;2022-08-04T18:29:18;19.80;99.90
22224;DHT22;11281;52.194;21.006;2022-08-04T18:33:19;19.70;99.90
22224;DHT22;11281;52.194;21.006;2022-08-04T18:37:21;19.50;99.90
22224;DHT22;11281;52.194;21.006;2022-08-04T18:41:22;19.40;99.90
22224;DHT22;11281;52.194;21.006;2022-08-04T18:45:24;19.40;99.90
22224;DHT22;11281;52.194;21.006;2022-08-04T18:49:26;19.20;99.90
22224;DHT22;11281;52.194;21.006;2022-08-04T18:53:28;19.10;99.90
22224;DHT22;11281;52.194;21.006;2022-08-04T18:57:30;19.10;99.90
22224;DHT22;11281;52.194;21.006;2022-08-04T19:01:32;18.90;99.90
22224;DHT22;11281;52.194;21.006;2022-08-04T19:05:33;18.90;99.90
22224;DHT22;11281;52.194;21.006;2022-08-04T19:09:35;18.80;99.90
22224;DHT22;11281;52.194;21.006;2022-08-04T19:13:37;18.80;99.90
22224;DHT22;11281;52.194;21.006;2022-08-04T19:17:42;18.70;99.90
22224;DHT22;11281;52.194;21.006;2022-08-04T19:21:44;18.60;99.90
22224;DHT22;11281;52.194;21.006;2022-08-04T19:25:46;18.50;99.90
22224;DHT22;11281;52.194;21.006;2022-08-04T19:29:48;18.50;99.90
22224;DHT22;11281;52.194;21.006;2022-08-04T19:33:49;18.40;99.90
22224;DHT22;11281;52.194;21.006;2022-08-04T19:37:51;18.30;99.90
22224;DHT22;11281;52.194;21.006;2022-08-04T19:41:53;18.20;99.90
22224;DHT22;11281;52.194;21.006;2022-08-04T19:45:56;18.10;99.90
22224;DHT22;11281;52.194;21.006;2022-08-04T19:49:58;18.10;99.90
22224;DHT22;11281;52.194;21.006;2022-08-04T19:53:59;18.00;99.90
22224;DHT22;11281;52.194;21.006;2022-08-04T19:58:02;17.90;99.90
22224;DHT22;11281;52.194;21.006;2022-08-04T20:02:05;17.90;99.90
22224;DHT22;11281;52.194;21.006;2022-08-04T20:06:07;17.80;99.90
22224;DHT22;11281;52.194;21.006;2022-08-04T20:10:08;17.80;99.90
22224;DHT22;11281;52.194;21.006;2022-08-04T20:14:10;17.70;99.90
22224;DHT22;11281;52.194;21.006;2022-08-04T20:18:12;17.80;99.90
22224;DHT22;11281;52.194;21.006;2022-08-04T20:22:14;17.70;99.90
22224;DHT22;11281;52.194;21.006;2022-08-04T20:26:19;17.60;99.90
22224;DHT22;11281;52.194;21.006;2022-08-04T20:30:21;17.50;99.90
22224;DHT22;11281;52.194;21.006;2022-08-04T20:34:23;17.50;99.90
22224;DHT22;11281;52.194;21.006;2022-08-04T20:38:24;17.40;99.90
22224;DHT22;11281;52.194;21.006;2022-08-04T20:42:27;17.50;99.90
22224;DHT22;11281;52.194;21.006;2022-08-04T20:46:29;17.40;99.90
22224;DHT22;11281;52.194;21.006;2022-08-04T20:50:30;17.40;99.90
22224;DHT22;11281;52.194;21.006;2022-08-04T20:54:32;17.30;99.90
22224;DHT22;11281;52.194;21.006;2022-08-04T20:58:34;17.30;99.90
22224;DHT22;11281;52.194;21.006;2022-08-04T21:02:36;17.20;99.90
22224;DHT22;11281;52.194;21.006;2022-08-04T21:06:37;17.20;99.90
22224;DHT22;11281;52.194;21.006;2022-08-04T21:10:39;17.10;99.90
22224;DHT22;11281;52.194;21.006;2022-08-04T21:14:43;17.10;99.90
22224;DHT22;11281;52.194;21.006;2022-08-04T21:18:45;17.00;99.90
22224;DHT22;11281;52.194;21.006;2022-08-04T21:22:48;17.00;99.90
22224;DHT22;11281;52.194;21.006;2022-08-04T21:26:53;17.00;99.90
22224;DHT22;11281;52.194;21.006;2022-08-04T21:30:55;16.90;99.90
22224;DHT22;11281;52.194;21.006;2022-08-04T21:34:59;16.90;99.90
22224;DHT22;11281;52.194;21.006;2022-08-04T21:39:02;16.90;99.90
22224;DHT22;11281;52.194;21.006;2022-08-04T21:43:06;16.90;99.90
22224;DHT22;11281;52.194;21.006;2022-08-04T21:47:07;16.90;99.90
22224;DHT22;11281;52.194;21.006;2022-08-04T21:51:17;16.80;99.90
22224;DHT22;11281;52.194;21.006;2022-08-04T21:55:22;17.00;99.90
22224;DHT22;11281;52.194;21.006;2022-08-04T21:59:23;16.90;99.90
22224;DHT22;11281;52.194;21.006;2022-08-04T22:03:27;17.00;99.90
22224;DHT22;11281;52.194;21.006;2022-08-04T22:07:29;17.00;99.90
22224;DHT22;11281;52.194;21.006;2022-08-04T22:11:43;16.90;99.90
22224;DHT22;11281;52.194;21.006;2022-08-04T22:15:47;16.70;99.90
22224;DHT22;11281;52.194;21.006;2022-08-04T22:19:50;16.70;99.90
22224;DHT22;11281;52.194;21.006;2022-08-04T22:23:53;16.60;99.90
22224;DHT22;11281;52.194;21.006;2022-08-04T22:27:57;16.50;99.90
22224;DHT22;11281;52.194;21.006;2022-08-04T22:32:01;16.40;99.90
22224;DHT22;11281;52.194;21.006;2022-08-04T22:36:04;16.50;99.90
22224;DHT22;11281;52.194;21.006;2022-08-04T22:40:07;16.40;99.90
22224;DHT22;11281;52.194;21.006;2022-08-04T22:44:10;16.40;99.90
22224;DHT22;11281;52.194;21.006;2022-08-04T22:48:12;16.40;99.90
22224;DHT22;11281;52.194;21.006;2022-08-04T22:52:14;16.40;99.90
22224;DHT22;11281;52.194;21.006;2022-08-04T22:56:18;16.50;99.90
22224;DHT22;11281;52.194;21.006;2022-08-04T23:00:20;16.70;99.90
22224;DHT22;11281;52.194;21.006;2022-08-04T23:04:21;16.60;99.90
22224;DHT22;11281;52.194;21.006;2022-08-04T23:08:23;16.50;99.90
22224;DHT22;11281;52.194;21.006;2022-08-04T23:12:25;16.70;99.90
22224;DHT22;11281;52.194;21.006;2022-08-04T23:16:28;16.70;99.90
22224;DHT22;11281;52.194;21.006;2022-08-04T23:20:30;16.60;99.90
22224;DHT22;11281;52.194;21.006;2022-08-04T23:24:31;16.50;99.90
22224;DHT22;11281;52.194;21.006;2022-08-04T23:28:33;16.30;99.90
22224;DHT22;11281;52.194;21.006;2022-08-04T23:32:35;16.30;99.90
22224;DHT22;11281;52.194;21.006;2022-08-04T23:36:37;16.30;99.90
22224;DHT22;11281;52.194;21.006;2022-08-04T23:40:39;16.20;99.90
22224;DHT22;11281;52.194;21.006;2022-08-04T23:44:41;16.20;99.90
22224;DHT22;11281;52.194;21.006;2022-08-04T23:48:44;16.20;99.90
22224;DHT22;11281;52.194;21.006;2022-08-04T23:52:46;16.10;99.90
22224;DHT22;11281;52.194;21.006;2022-08-04T23:56:47;16.00;99.90
